Time;durP1;ratioP1;P1;durP2;ratioP2;P2;SDS_P1;SDS_P2;PMS_P1;PMS_P2;Temp;Humidity;BMP_temperature;BMP_pressure;BME280_temperature;BME280_humidity;BME280_pressure;Samples;Min_cycle;Max_cycle;Signal;HPM_P1;HPM_P2
2023/04/24 00:01:29;;;;;;;13.60;9.30;;;;;;;8.17;100.00;99159.15;106052;1253;62406;-83
2023/04/24 00:03:59;;;;;;;10.00;7.90;;;;;;;8.09;100.00;99151.31;106128;1253;61249;-80
2023/04/24 00:06:32;;;;;;;12.60;7.90;;;;;;;7.98;100.00;99151.79;106269;1253;73460;-79
2023/04/24 00:09:00;;;;;;;10.90;8.40;;;;;;;7.94;100.00;99154.52;106263;1256;70124;-80
2023/04/24 00:11:27;;;;;;;11.60;9.60;;;;;;;8.06;100.00;99151.05;106202;1256;72423;-80
2023/04/24 00:13:56;;;;;;;13.50;9.70;;;;;;;8.08;100.00;99153.26;105854;1253;61532;-82
2023/04/24 00:16:23;;;;;;;15.10;9.20;;;;;;;7.98;100.00;99152.38;106090;1253;61327;-82
2023/04/24 00:18:52;;;;;;;11.10;8.80;;;;;;;7.73;100.00;99151.23;105948;1256;75600;-81
2023/04/24 00:21:19;;;;;;;10.90;8.80;;;;;;;7.68;100.00;99147.41;106234;1255;68275;-81
2023/04/24 00:23:46;;;;;;;15.70;10.80;;;;;;;7.82;100.00;99147.30;106205;1257;72553;-79
2023/04/24 00:26:13;;;;;;;14.80;9.50;;;;;;;7.70;100.00;99145.78;106070;1256;61350;-80
2023/04/24 00:28:40;;;;;;;10.60;8.40;;;;;;;7.76;100.00;99145.13;106121;1252;61209;-80
2023/04/24 00:31:07;;;;;;;14.00;8.60;;;;;;;7.82;100.00;99140.84;106097;1255;75681;-79
2023/04/24 00:33:33;;;;;;;11.80;7.80;;;;;;;7.87;100.00;99140.21;106161;1254;69356;-80
2023/04/24 00:36:00;;;;;;;11.60;8.40;;;;;;;7.72;100.00;99136.09;106168;1253;73799;-81
2023/04/24 00:38:27;;;;;;;10.30;8.20;;;;;;;7.61;100.00;99130.00;106179;1253;61720;-81
2023/04/24 00:40:54;;;;;;;12.20;9.20;;;;;;;7.64;100.00;99133.04;106230;1253;61303;-80
2023/04/24 00:43:21;;;;;;;13.30;8.80;;;;;;;7.53;100.00;99132.08;106210;1257;75737;-83
2023/04/24 00:45:49;;;;;;;12.10;8.20;;;;;;;7.54;100.00;99133.48;106320;1253;69728;-79
2023/04/24 00:48:16;;;;;;;14.00;9.60;;;;;;;7.45;100.00;99130.98;106106;1253;73758;-81
2023/04/24 00:50:43;;;;;;;11.50;9.10;;;;;;;7.40;100.00;99128.98;105916;1257;61404;-80
2023/04/24 00:53:10;;;;;;;10.50;8.30;;;;;;;7.41;100.00;99130.39;105876;1253;61259;-81
2023/04/24 00:55:37;;;;;;;10.20;8.80;;;;;;;7.53;100.00;99129.73;105988;1253;75485;-82
2023/04/24 00:58:05;;;;;;;13.00;9.80;;;;;;;7.50;100.00;99130.15;106050;1253;68618;-80
2023/04/24 01:00:33;;;;;;;11.90;8.50;;;;;;;7.63;100.00;99128.70;105945;1253;74055;-81
2023/04/24 01:03:01;;;;;;;13.50;8.80;;;;;;;7.52;100.00;99131.41;106101;1256;62071;-81
2023/04/24 01:05:28;;;;;;;11.70;8.90;;;;;;;7.42;100.00;99133.84;106186;1253;61348;-80
2023/04/24 01:07:55;;;;;;;11.10;8.90;;;;;;;7.49;100.00;99132.51;106332;1257;75516;-80
2023/04/24 01:10:22;;;;;;;17.60;9.20;;;;;;;7.55;100.00;99132.52;106269;1253;68451;-79
2023/04/24 01:12:49;;;;;;;13.10;9.40;;;;;;;7.75;100.00;99131.39;106017;1258;74068;-79
2023/04/24 01:15:16;;;;;;;15.20;8.40;;;;;;;7.66;100.00;99132.42;106040;1259;61936;-80
2023/04/24 01:17:43;;;;;;;16.80;10.70;;;;;;;7.52;100.00;99131.73;106216;1257;61250;-80
2023/04/24 01:20:10;;;;;;;14.40;10.50;;;;;;;7.45;100.00;99128.31;106223;1253;73960;-80
2023/04/24 01:22:38;;;;;;;17.10;10.00;;;;;;;7.48;100.00;99133.45;106232;1256;69382;-79
2023/04/24 01:25:05;;;;;;;13.70;9.20;;;;;;;7.48;100.00;99127.61;106206;1253;73597;-80
2023/04/24 01:27:32;;;;;;;11.90;9.20;;;;;;;7.66;100.00;99126.12;106334;1253;62001;-80
2023/04/24 01:29:59;;;;;;;10.90;9.10;;;;;;;7.68;100.00;99129.94;106090;1253;61345;-80
2023/04/24 01:32:26;;;;;;;13.10;10.60;;;;;;;7.80;100.00;99127.44;106210;1253;74287;-79
2023/04/24 01:34:53;;;;;;;13.40;10.00;;;;;;;7.72;100.00;99125.23;106278;1257;67918;-80
2023/04/24 01:37:19;;;;;;;15.80;10.80;;;;;;;7.67;100.00;99123.95;106152;1256;71355;-79
2023/04/24 01:39:46;;;;;;;14.70;10.90;;;;;;;7.60;100.00;99122.55;106034;1256;61254;-80
2023/04/24 01:42:14;;;;;;;22.10;10.50;;;;;;;7.23;100.00;99118.93;106018;1253;61108;-79
2023/04/24 01:44:41;;;;;;;17.20;13.10;;;;;;;7.35;100.00;99122.02;105926;1257;75566;-80
2023/04/24 01:47:08;;;;;;;57.80;30.60;;;;;;;7.23;100.00;99119.23;105825;1253;69101;-79
2023/04/24 01:49:35;;;;;;;49.20;27.80;;;;;;;7.23;100.00;99118.20;106724;1253;72822;-80
2023/04/24 01:52:02;;;;;;;18.50;12.60;;;;;;;7.27;100.00;99117.94;109196;1253;60153;-80
2023/04/24 01:54:30;;;;;;;26.50;12.90;;;;;;;7.13;100.00;99114.40;107219;1253;61112;-81
2023/04/24 01:56:57;;;;;;;24.30;11.60;;;;;;;7.00;100.00;99111.42;106320;1254;74452;-80
2023/04/24 01:59:24;;;;;;;12.80;9.70;;;;;;;7.08;100.00;99112.77;106015;1253;69165;-80
2023/04/24 02:01:51;;;;;;;20.40;11.60;;;;;;;7.20;100.00;99109.82;106002;1256;70392;-80
2023/04/24 02:04:19;;;;;;;14.70;11.50;;;;;;;7.10;100.00;99109.73;106302;1254;62365;-80
2023/04/24 02:06:48;;;;;;;12.80;10.70;;;;;;;7.10;100.00;99107.67;106348;1254;61346;-80
2023/04/24 02:09:15;;;;;;;17.00;9.70;;;;;;;7.08;100.00;99107.00;106231;1253;75047;-79
2023/04/24 02:11:42;;;;;;;13.00;9.90;;;;;;;7.21;100.00;99099.69;105870;1259;68526;-79
2023/04/24 02:14:09;;;;;;;15.20;10.80;;;;;;;7.34;100.00;99101.33;106187;1254;72872;-81
2023/04/24 02:16:36;;;;;;;13.50;9.40;;;;;;;6.98;100.00;99092.95;106180;1256;62345;-79
2023/04/24 02:19:03;;;;;;;14.80;9.60;;;;;;;6.74;100.00;99091.02;106188;1256;61170;-80
2023/04/24 02:21:30;;;;;;;15.40;9.60;;;;;;;6.99;100.00;99091.91;106103;1257;75568;-80
2023/04/24 02:23:57;;;;;;;14.00;9.60;;;;;;;7.05;100.00;99092.75;106196;1253;68039;-80
2023/04/24 02:26:24;;;;;;;15.50;9.40;;;;;;;7.05;100.00;99093.41;106430;1253;73609;-81
2023/04/24 02:28:51;;;;;;;19.30;9.50;;;;;;;7.00;100.00;99090.07;106451;1253;62044;-82
2023/04/24 02:31:19;;;;;;;14.40;9.80;;;;;;;7.01;100.00;99090.34;106277;1253;61347;-80
2023/04/24 02:33:47;;;;;;;;;;;;;;;7.16;100.00;99092.62;106182;1253;75583;-80
2023/04/24 02:36:14;;;;;;;14.30;10.60;;;;;;;7.11;100.00;99091.46;106363;1252;68830;-80
2023/04/24 02:38:41;;;;;;;13.20;9.30;;;;;;;7.08;100.00;99090.47;106330;1256;71562;-80
2023/04/24 02:41:08;;;;;;;12.00;9.40;;;;;;;7.06;100.00;99090.11;106350;1257;62239;-80
2023/04/24 02:43:35;;;;;;;13.30;9.60;;;;;;;7.03;100.00;99091.81;106129;1253;61350;-80
2023/04/24 02:46:02;;;;;;;14.30;10.10;;;;;;;6.96;100.00;99097.48;106284;1253;73703;-80
2023/04/24 02:48:30;;;;;;;16.40;11.70;;;;;;;6.69;100.00;99096.09;106220;1253;68892;-81
2023/04/24 02:50:57;;;;;;;14.30;10.20;;;;;;;6.78;100.00;99100.14;105978;1255;71412;-81
2023/04/24 02:53:25;;;;;;;11.60;9.80;;;;;;;6.83;100.00;99093.26;106011;1256;62163;-80
2023/04/24 02:55:52;;;;;;;13.10;9.70;;;;;;;6.74;100.00;99094.69;105947;1253;61952;-80
2023/04/24 02:58:19;;;;;;;21.60;9.60;;;;;;;7.07;100.00;99096.85;106195;1256;74697;-80
2023/04/24 03:00:47;;;;;;;16.20;11.10;;;;;;;7.17;100.00;99089.70;106004;1253;68738;-80
2023/04/24 03:03:15;;;;;;;22.40;11.60;;;;;;;7.60;100.00;99095.95;106232;1255;72725;-79
2023/04/24 03:05:42;;;;;;;12.10;8.70;;;;;;;7.53;100.00;99098.80;106137;1260;62077;-79
2023/04/24 03:08:08;;;;;;;16.20;11.10;;;;;;;7.37;100.00;99098.55;106168;1257;61171;-80
2023/04/24 03:10:36;;;;;;;14.70;11.10;;;;;;;7.30;100.00;99100.42;106376;1256;75563;-81
2023/04/24 03:13:02;;;;;;;14.50;10.60;;;;;;;7.26;100.00;99093.47;106399;1256;66764;-79
2023/04/24 03:15:30;;;;;;;16.10;10.20;;;;;;;7.45;100.00;99092.26;106474;1256;73535;-80
2023/04/24 03:17:57;;;;;;;18.10;11.30;;;;;;;7.61;100.00;99091.05;106565;1256;61668;-80
2023/04/24 03:20:23;;;;;;;13.10;10.80;;;;;;;7.41;100.00;99091.89;106405;1260;61200;-80
2023/04/24 03:22:51;;;;;;;18.00;14.10;;;;;;;7.70;100.00;99092.14;106817;1255;74613;-80
2023/04/24 03:25:18;;;;;;;18.60;14.20;;;;;;;7.83;100.00;99094.14;106327;1253;68577;-80
2023/04/24 03:27:46;;;;;;;27.20;14.30;;;;;;;7.73;100.00;99093.73;106239;1260;71827;-78
2023/04/24 03:30:31;;;;;;;18.50;14.10;;;;;;;7.67;100.00;99094.98;105683;1253;61324;-81
2023/04/24 03:32:59;;;;;;;19.60;14.80;;;;;;;7.63;100.00;99092.37;106100;1253;61475;-79
2023/04/24 03:35:30;;;;;;;21.90;13.70;;;;;;;7.68;100.00;99097.14;105964;1257;75808;-80
2023/04/24 03:37:58;;;;;;;21.40;14.80;;;;;;;7.66;100.00;99097.23;106037;1257;68778;-82
2023/04/24 03:40:45;;;;;;;28.50;13.70;;;;;;;7.32;100.00;99095.39;105721;1253;72685;-80
2023/04/24 03:43:23;;;;;;;17.30;12.90;;;;;;;7.60;100.00;99098.45;105821;1253;61406;-81
2023/04/24 03:45:50;;;;;;;29.20;13.30;;;;;;;7.66;100.00;99102.09;105821;1253;61365;-82
2023/04/24 03:48:17;;;;;;;22.30;13.20;;;;;;;7.78;100.00;99102.30;105846;1261;75316;-80
2023/04/24 03:50:45;;;;;;;17.90;11.90;;;;;;;7.88;100.00;99107.46;106141;1257;69350;-79
2023/04/24 03:53:12;;;;;;;18.90;11.90;;;;;;;7.77;100.00;99110.24;105991;1257;73820;-80
2023/04/24 03:55:40;;;;;;;21.10;13.10;;;;;;;7.94;100.00;99112.98;105983;1257;62567;-80
2023/04/24 03:58:08;;;;;;;20.50;12.60;;;;;;;8.10;100.00;99115.17;105945;1259;61254;-80
2023/04/24 04:00:37;;;;;;;27.40;14.30;;;;;;;8.30;100.00;99116.06;105925;1259;74980;-81
2023/04/24 04:03:25;;;;;;;26.20;15.70;;;;;;;8.40;100.00;99113.30;105863;1257;69140;-79
2023/04/24 04:05:52;;;;;;;24.20;15.20;;;;;;;8.52;100.00;99110.52;105692;1257;71520;-80
2023/04/24 04:08:20;;;;;;;29.70;15.70;;;;;;;8.66;100.00;99114.30;105870;1257;61917;-80
2023/04/24 04:10:48;;;;;;;23.00;14.90;;;;;;;8.84;100.00;99117.64;105836;1257;61459;-82
2023/04/24 04:13:15;;;;;;;28.40;16.30;;;;;;;8.98;100.00;99115.52;105735;1260;75515;-81
2023/04/24 04:15:42;;;;;;;34.40;16.10;;;;;;;9.26;100.00;99113.72;105881;1260;67879;-79
2023/04/24 04:18:08;;;;;;;22.70;13.20;;;;;;;9.49;100.00;99111.33;105773;1257;73817;-81
2023/04/24 04:20:36;;;;;;;27.00;14.50;;;;;;;9.86;100.00;99113.66;106067;1253;62975;-80
2023/04/24 04:23:03;;;;;;;32.00;14.50;;;;;;;10.16;100.00;99112.05;105918;1253;61426;-80
2023/04/24 04:25:39;;;;;;;27.40;15.50;;;;;;;10.61;100.00;99114.58;105983;1256;74874;-80
2023/04/24 04:28:06;;;;;;;26.00;17.50;;;;;;;11.37;100.00;99120.27;105975;1253;69697;-79
2023/04/24 04:30:33;;;;;;;39.20;15.00;;;;;;;11.86;94.11;99119.83;105968;1256;73468;-79
2023/04/24 04:33:02;;;;;;;16.70;10.80;;;;;;;12.03;92.77;99124.21;106072;1253;62480;-79
2023/04/24 04:35:31;;;;;;;21.20;11.90;;;;;;;12.00;92.28;99120.94;106229;1252;61332;-81
2023/04/24 04:37:58;;;;;;;18.90;9.80;;;;;;;12.16;87.33;99117.40;106271;1252;74625;-79
2023/04/24 04:40:37;;;;;;;16.70;9.70;;;;;;;12.67;84.86;99123.20;106048;1252;69650;-80
2023/04/24 04:43:05;;;;;;;11.80;8.30;;;;;;;13.12;82.09;99124.00;106256;1253;73597;-81
2023/04/24 04:45:40;;;;;;;15.60;8.90;;;;;;;13.53;76.70;99128.16;106386;1256;61270;-81
2023/04/24 04:48:31;;;;;;;12.40;7.80;;;;;;;13.75;71.26;99132.11;106428;1253;61304;-81
2023/04/24 04:50:59;;;;;;;16.40;7.90;;;;;;;13.60;68.46;99134.20;106375;1254;74984;-80
2023/04/24 04:53:26;;;;;;;13.80;8.40;;;;;;;13.59;65.35;99136.26;106578;1258;67815;-81
2023/04/24 04:55:53;;;;;;;12.40;8.70;;;;;;;13.53;65.01;99137.97;109052;1252;72437;-80
2023/04/24 04:58:25;;;;;;;14.80;10.00;;;;;;;13.58;65.59;99141.81;108633;1255;61288;-82
2023/04/24 05:00:57;;;;;;;26.90;17.60;;;;;;;13.85;65.46;99142.70;106496;1253;61526;-82
2023/04/24 05:03:27;;;;;;;26.50;20.10;;;;;;;14.11;63.40;99135.84;106116;1253;73061;-81
2023/04/24 05:06:02;;;;;;;33.80;20.00;;;;;;;14.22;62.28;99133.98;106218;1260;69949;-81
2023/04/24 05:08:31;;;;;;;24.40;15.60;;;;;;;14.42;61.27;99138.60;106292;1253;72685;-81
2023/04/24 05:11:00;;;;;;;30.10;15.30;;;;;;;14.73;58.98;99138.44;106454;1253;61309;-81
2023/04/24 05:13:28;;;;;;;19.00;10.90;;;;;;;14.79;56.16;99135.35;106414;1257;61243;-81
2023/04/24 05:16:10;;;;;;;10.80;8.00;;;;;;;15.33;54.87;99137.44;106766;1252;74663;-80
2023/04/24 05:18:37;;;;;;;14.40;11.80;;;;;;;15.60;53.25;99141.13;106654;1256;66985;-80
2023/04/24 05:21:05;;;;;;;11.80;7.60;;;;;;;15.38;52.13;99138.46;106475;1254;71797;-80
2023/04/24 05:23:33;;;;;;;11.10;6.80;;;;;;;15.41;52.35;99134.40;106516;1252;61395;-80
2023/04/24 05:26:02;;;;;;;22.30;7.40;;;;;;;15.56;51.54;99142.65;106507;1256;61243;-79
2023/04/24 05:28:31;;;;;;;16.70;9.00;;;;;;;15.62;52.37;99146.87;106677;1252;73612;-81
2023/04/24 05:31:06;;;;;;;12.80;7.80;;;;;;;15.58;52.34;99144.87;108037;1253;68586;-82
2023/04/24 05:33:37;;;;;;;12.90;9.30;;;;;;;15.67;51.97;99142.14;107161;1256;73487;-82
2023/04/24 05:36:06;;;;;;;16.30;9.20;;;;;;;15.85;52.27;99135.95;106495;1261;61354;-82
2023/04/24 05:38:33;;;;;;;35.30;10.40;;;;;;;15.69;52.74;99138.00;106492;1253;61190;-81
2023/04/24 05:41:00;;;;;;;15.40;8.90;;;;;;;15.60;53.74;99136.52;106959;1256;75544;-82
2023/04/24 05:43:28;;;;;;;19.00;9.10;;;;;;;15.61;54.37;99133.76;106457;1253;69688;-81
2023/04/24 05:45:55;;;;;;;14.40;9.90;;;;;;;15.31;55.43;99130.19;106169;1257;71737;-81
2023/04/24 05:48:23;;;;;;;17.50;10.70;;;;;;;15.27;57.04;99132.73;106144;1253;61559;-80
2023/04/24 05:50:50;;;;;;;24.40;11.60;;;;;;;15.46;55.91;99134.38;106374;1256;62336;-80
2023/04/24 05:53:18;;;;;;;23.20;12.10;;;;;;;15.33;55.43;99132.16;106228;1258;74933;-80
2023/04/24 05:55:45;;;;;;;23.30;13.00;;;;;;;15.53;56.44;99134.92;106256;1254;67894;-80
2023/04/24 05:58:14;;;;;;;14.40;10.00;;;;;;;15.92;53.72;99140.30;106777;1253;73312;-79
2023/04/24 06:00:46;;;;;;;17.60;12.50;;;;;;;16.16;53.00;99146.19;106369;1254;61394;-80
2023/04/24 06:03:13;;;;;;;13.30;8.80;;;;;;;16.59;52.42;99141.81;106424;1252;61168;-78
2023/04/24 06:05:40;;;;;;;11.20;8.30;;;;;;;16.85;51.63;99142.52;107082;1256;74650;-83
2023/04/24 06:08:07;;;;;;;19.80;9.10;;;;;;;17.19;50.34;99145.60;106487;1259;68107;-79
2023/04/24 06:10:38;;;;;;;11.50;8.80;;;;;;;17.35;49.78;99144.08;106369;1254;73478;-81
2023/04/24 06:13:06;;;;;;;12.40;8.10;;;;;;;17.91;48.35;99145.14;106186;1253;61318;-80
2023/04/24 06:15:34;;;;;;;15.20;8.50;;;;;;;18.04;46.96;99143.64;106022;1254;61241;-80
2023/04/24 06:18:12;;;;;;;7.50;5.60;;;;;;;18.30;46.27;99144.35;105969;1253;74603;-81
2023/04/24 06:20:39;;;;;;;7.80;6.60;;;;;;;18.86;45.40;99146.11;105928;1253;69508;-78
2023/04/24 06:23:08;;;;;;;9.10;6.40;;;;;;;19.04;44.38;99143.23;105915;1253;73569;-79
2023/04/24 06:25:35;;;;;;;17.50;7.20;;;;;;;18.95;44.03;99143.52;105713;1253;62172;-80
2023/04/24 06:28:02;;;;;;;16.20;9.20;;;;;;;19.15;43.84;99144.02;105893;1253;61362;-80
2023/04/24 06:30:30;;;;;;;9.30;6.80;;;;;;;19.22;43.80;99144.02;106000;1253;75573;-79
2023/04/24 06:32:57;;;;;;;10.80;5.90;;;;;;;19.67;43.77;99144.73;105859;1253;68962;-79
2023/04/24 06:35:32;;;;;;;7.70;5.80;;;;;;;20.20;41.61;99147.58;105640;1253;72992;-79
2023/04/24 06:37:59;;;;;;;5.30;4.20;;;;;;;19.93;40.79;99145.23;105995;1258;61256;-79
2023/04/24 06:40:26;;;;;;;6.80;4.40;;;;;;;19.57;40.97;99147.88;106006;1254;61346;-80
2023/04/24 06:42:52;;;;;;;6.00;4.80;;;;;;;19.73;41.07;99146.49;106033;1254;74978;-78
2023/04/24 06:45:20;;;;;;;5.00;4.40;;;;;;;19.80;40.93;99148.47;106094;1254;69749;-81
2023/04/24 06:47:48;;;;;;;17.00;5.90;;;;;;;20.08;41.09;99149.23;106140;1253;72469;-79
2023/04/24 06:50:15;;;;;;;9.90;5.50;;;;;;;20.20;39.98;99150.12;106102;1254;61282;-80
2023/04/24 06:52:42;;;;;;;5.90;5.20;;;;;;;20.27;38.57;99152.81;106167;1254;61229;-78
2023/04/24 06:55:10;;;;;;;6.60;5.60;;;;;;;19.97;38.67;99153.09;106211;1256;74907;-80
2023/04/24 06:57:37;;;;;;;8.30;5.40;;;;;;;19.97;38.86;99153.95;106184;1254;69992;-81
2023/04/24 07:00:06;;;;;;;7.40;4.20;;;;;;;20.50;38.25;99160.27;106164;1254;71792;-79
2023/04/24 07:02:33;;;;;;;4.60;3.80;;;;;;;20.78;36.27;99161.54;106103;1256;61368;-79
2023/04/24 07:05:01;;;;;;;4.70;3.50;;;;;;;20.71;34.55;99168.70;106101;1255;61230;-78
2023/04/24 07:07:28;;;;;;;4.70;3.70;;;;;;;20.40;35.02;99169.21;106071;1256;74604;-80
2023/04/24 07:09:56;;;;;;;6.60;5.10;;;;;;;20.26;35.53;99167.50;106116;1253;69399;-81
2023/04/24 07:12:23;;;;;;;;;;;;;;;20.12;35.66;99166.79;106111;1253;72634;-81
2023/04/24 07:14:50;;;;;;;6.40;4.40;;;;;;;19.78;35.40;99162.41;106258;1256;61337;-79
2023/04/24 07:17:17;;;;;;;9.20;6.30;;;;;;;19.87;35.89;99162.64;105799;1254;61353;-79
2023/04/24 07:19:45;;;;;;;7.00;5.10;;;;;;;19.97;35.82;99162.90;106145;1256;75680;-78
2023/04/24 07:22:16;;;;;;;6.70;4.10;;;;;;;20.09;35.25;99160.51;106100;1253;69658;-79
2023/04/24 07:24:44;;;;;;;8.80;3.60;;;;;;;20.39;35.48;99163.81;105911;1253;71978;-79
2023/04/24 07:27:11;;;;;;;7.20;4.30;;;;;;;20.52;35.08;99160.35;105973;1253;61242;-79
2023/04/24 07:29:39;;;;;;;5.60;4.00;;;;;;;20.60;34.56;99163.03;105818;1254;61283;-83
2023/04/24 07:32:07;;;;;;;4.60;2.80;;;;;;;20.74;33.43;99158.83;105863;1258;75476;-79
2023/04/24 07:34:35;;;;;;;6.20;3.50;;;;;;;20.38;32.88;99159.11;105982;1253;69822;-79
2023/04/24 07:37:01;;;;;;;4.20;3.50;;;;;;;20.21;33.94;99159.83;105861;1253;72698;-79
2023/04/24 07:39:29;;;;;;;7.00;3.70;;;;;;;20.22;33.02;99162.67;105914;1253;61241;-84
2023/04/24 07:41:56;;;;;;;8.50;3.60;;;;;;;20.41;32.83;99158.84;105901;1253;61202;-70
2023/04/24 07:44:22;;;;;;;7.40;3.50;;;;;;;20.42;32.77;99157.45;105761;1253;74811;-68
2023/04/24 07:46:49;;;;;;;6.10;3.70;;;;;;;20.40;32.90;99153.71;105561;1253;68799;-72
2023/04/24 07:49:16;;;;;;;5.60;3.60;;;;;;;20.31;33.74;99152.05;105541;1259;73434;-71
2023/04/24 07:51:44;;;;;;;8.10;4.00;;;;;;;20.23;32.86;99150.64;105580;1259;61750;-73
2023/04/24 07:54:11;;;;;;;6.70;4.30;;;;;;;20.15;31.94;99156.55;105800;1253;61338;-69
2023/04/24 07:56:42;;;;;;;6.10;4.10;;;;;;;20.72;31.81;99155.02;105711;1258;75237;-69
2023/04/24 07:59:10;;;;;;;8.90;4.00;;;;;;;20.83;31.70;99152.39;105585;1253;68627;-71
2023/04/24 08:01:37;;;;;;;9.80;7.50;;;;;;;20.81;32.11;99143.83;105923;1253;72707;-71
2023/04/24 08:04:05;;;;;;;6.20;3.40;;;;;;;20.60;32.39;99150.85;108015;1253;61151;-71
2023/04/24 08:06:33;;;;;;;7.40;4.40;;;;;;;20.98;32.15;99152.88;107629;1253;61282;-72
2023/04/24 08:09:00;;;;;;;7.20;3.90;;;;;;;21.30;30.89;99153.42;106211;1256;75235;-74
2023/04/24 08:11:27;;;;;;;5.10;3.70;;;;;;;21.35;30.52;99152.12;105897;1254;69190;-71
2023/04/24 08:13:54;;;;;;;7.10;3.90;;;;;;;21.30;31.34;99145.23;105896;1254;73360;-73
2023/04/24 08:16:23;;;;;;;4.40;3.00;;;;;;;21.23;31.32;99146.46;105763;1260;61302;-71
2023/04/24 08:18:50;;;;;;;6.50;3.30;;;;;;;21.01;30.74;99144.70;105905;1254;61263;-70
2023/04/24 08:21:18;;;;;;;6.00;3.80;;;;;;;20.71;30.74;99144.16;105822;1260;74769;-69
2023/04/24 08:23:45;;;;;;;5.60;4.00;;;;;;;20.06;31.80;99133.66;105899;1254;68613;-71
2023/04/24 08:26:13;;;;;;;8.60;4.50;;;;;;;20.05;32.42;99128.73;105661;1259;73126;-70
2023/04/24 08:28:40;;;;;;;4.70;3.60;;;;;;;20.26;32.27;99136.42;105711;1254;61606;-72
2023/04/24 08:31:07;;;;;;;13.40;7.00;;;;;;;20.41;31.85;99129.23;106034;1254;61221;-73
2023/04/24 08:33:35;;;;;;;4.10;3.10;;;;;;;20.64;31.50;99133.34;105878;1256;76161;-72
2023/04/24 08:36:05;;;;;;;7.90;3.30;;;;;;;20.76;30.86;99132.31;105891;1256;68857;-71
2023/04/24 08:38:32;;;;;;;8.00;3.70;;;;;;;20.56;30.23;99131.02;105865;1257;73613;-69
2023/04/24 08:41:18;;;;;;;7.00;3.30;;;;;;;20.75;29.29;99123.71;105851;1253;61329;-75
2023/04/24 08:43:46;;;;;;;3.30;2.70;;;;;;;21.20;29.58;99123.66;105884;1255;61178;-69
2023/04/24 08:46:13;;;;;;;6.10;3.20;;;;;;;21.12;29.59;99114.69;105953;1256;74795;-69
2023/04/24 08:48:40;;;;;;;5.30;3.30;;;;;;;20.83;30.39;99119.97;105880;1255;68910;-70
2023/04/24 08:51:07;;;;;;;5.90;2.80;;;;;;;20.29;30.52;99116.98;105848;1254;72351;-72
2023/04/24 08:53:35;;;;;;;6.40;3.70;;;;;;;20.23;30.43;99118.55;105831;1253;61781;-74
2023/04/24 08:56:02;;;;;;;7.40;3.60;;;;;;;20.72;30.10;99110.97;105774;1253;61226;-73
2023/04/24 08:58:30;;;;;;;7.80;4.00;;;;;;;21.47;29.40;99112.94;105897;1257;75287;-73
2023/04/24 09:00:57;;;;;;;17.80;4.50;;;;;;;21.47;29.34;99111.86;105923;1253;68908;-71
2023/04/24 09:03:27;;;;;;;3.90;2.70;;;;;;;20.95;29.78;99108.39;105723;1257;150527;-73
2023/04/24 09:05:54;;;;;;;6.50;3.70;;;;;;;20.39;29.91;99102.98;105872;1255;61265;-73
2023/04/24 09:08:23;;;;;;;5.20;3.20;;;;;;;20.07;30.23;99102.27;105849;1253;61244;-73
2023/04/24 09:10:50;;;;;;;5.90;3.90;;;;;;;19.95;30.79;99103.61;105682;1256;75271;-70
2023/04/24 09:13:19;;;;;;;5.40;3.10;;;;;;;19.93;30.64;99095.39;105852;1254;68638;-71
2023/04/24 09:15:46;;;;;;;6.10;3.50;;;;;;;19.66;30.97;99096.75;105875;1256;72860;-70
2023/04/24 09:18:13;;;;;;;5.30;4.00;;;;;;;19.54;30.96;99090.50;105894;1255;62364;-70
2023/04/24 09:20:59;;;;;;;6.10;4.30;;;;;;;19.55;31.38;99092.77;105938;1254;61303;-71
2023/04/24 09:23:32;;;;;;;5.20;3.70;;;;;;;19.82;31.51;99086.48;105896;1256;73950;-70
2023/04/24 09:26:00;;;;;;;5.60;3.40;;;;;;;20.62;31.45;99085.11;105897;1254;69816;-70
2023/04/24 09:28:32;;;;;;;6.60;3.30;;;;;;;20.88;30.31;99082.45;105910;1254;74011;-71
2023/04/24 09:31:03;;;;;;;5.60;3.50;;;;;;;20.71;29.20;99082.80;105903;1252;61296;-72
2023/04/24 09:33:30;;;;;;;3.00;2.70;;;;;;;20.57;28.93;99067.19;105912;1254;61199;-72
2023/04/24 09:35:58;;;;;;;4.50;3.00;;;;;;;19.98;29.18;99071.11;105704;1259;74820;-75
2023/04/24 09:38:36;;;;;;;4.10;2.80;;;;;;;19.54;29.46;99063.20;106032;1256;69604;-72
2023/04/24 09:41:05;;;;;;;5.80;3.40;;;;;;;19.58;29.57;99066.73;105953;1257;71766;-71
2023/04/24 09:43:32;;;;;;;8.10;4.30;;;;;;;20.47;29.81;99069.41;105768;1257;61314;-71
2023/04/24 09:46:06;;;;;;;7.90;3.40;;;;;;;20.73;29.02;99061.78;105766;1253;62247;-72
2023/04/24 09:48:34;;;;;;;5.80;3.40;;;;;;;20.54;30.32;99067.44;105901;1258;74831;-70
2023/04/24 09:51:03;;;;;;;4.80;3.40;;;;;;;20.80;30.54;99063.98;106017;1254;68239;-71
2023/04/24 09:53:30;;;;;;;3.50;2.90;;;;;;;20.66;30.33;99064.56;105601;1261;71568;-71
2023/04/24 09:56:08;;;;;;;5.20;3.70;;;;;;;20.19;31.00;99063.27;105978;1254;62277;-72
2023/04/24 09:58:36;;;;;;;6.20;3.80;;;;;;;19.78;30.76;99066.41;106110;1254;61341;-71
2023/04/24 10:01:03;;;;;;;10.80;4.00;;;;;;;19.46;31.59;99065.04;105877;1256;75136;-71
2023/04/24 10:03:31;;;;;;;6.70;4.10;;;;;;;19.47;31.77;99063.39;105665;1254;69355;-71
2023/04/24 10:06:01;;;;;;;;;;;;;;;19.33;31.93;99063.79;105956;1254;73019;-78
2023/04/24 10:08:35;;;;;;;5.90;3.30;;;;;;;19.19;32.96;99058.60;105685;1254;61402;-70
2023/04/24 10:11:02;;;;;;;5.80;3.40;;;;;;;19.03;31.96;99058.17;105947;1252;61225;-70
2023/04/24 10:13:29;;;;;;;6.20;3.50;;;;;;;19.12;32.15;99053.10;105673;1262;75089;-74
2023/04/24 10:15:56;;;;;;;7.00;4.60;;;;;;;19.34;31.92;99047.14;105989;1257;68441;-71
2023/04/24 10:18:23;;;;;;;7.10;4.50;;;;;;;19.36;32.03;99045.27;105805;1257;73728;-72
2023/04/24 10:20:50;;;;;;;9.80;4.40;;;;;;;19.18;31.91;99038.38;105859;1253;61342;-71
2023/04/24 10:23:19;;;;;;;7.30;3.50;;;;;;;19.14;31.82;99038.13;105910;1253;61328;-73
2023/04/24 10:25:46;;;;;;;;;;;;;;;19.14;32.07;99039.89;105555;1261;74702;-71
2023/04/24 10:28:12;;;;;;;5.00;3.30;;;;;;;19.16;32.32;99033.77;105842;1253;68966;-79
2023/04/24 10:30:39;;;;;;;5.30;3.40;;;;;;;19.22;32.27;99031.77;105541;1261;73178;-71
2023/04/24 10:33:07;;;;;;;5.90;4.10;;;;;;;19.05;32.14;99029.73;105522;1253;61435;-72
2023/04/24 10:35:36;;;;;;;;;;;;;;;18.93;32.51;99029.39;105919;1255;61259;-71
2023/04/24 10:38:09;;;;;;;9.00;4.70;;;;;;;18.77;34.37;99032.21;105915;1257;72880;-72
2023/04/24 10:40:37;;;;;;;8.00;4.10;;;;;;;18.79;35.22;99037.13;105667;1253;68850;-72
2023/04/24 10:43:06;;;;;;;8.70;4.40;;;;;;;18.83;34.98;99037.45;105710;1253;72692;-72
2023/04/24 10:45:33;;;;;;;5.80;4.20;;;;;;;19.07;34.73;99037.79;105746;1257;61238;-70
2023/04/24 10:48:05;;;;;;;13.40;4.20;;;;;;;19.31;33.35;99023.20;105775;1253;61264;-72
2023/04/24 10:50:52;;;;;;;7.60;3.80;;;;;;;19.38;31.76;99039.44;105725;1256;74722;-70
2023/04/24 10:53:20;;;;;;;5.80;3.10;;;;;;;19.28;31.41;99039.19;105781;1257;69304;-71
2023/04/24 10:55:51;;;;;;;6.20;3.10;;;;;;;19.35;31.30;99040.64;105749;1259;72782;-71
2023/04/24 10:58:22;;;;;;;4.40;3.20;;;;;;;19.50;30.69;99032.78;105955;1258;61259;-74
2023/04/24 11:00:59;;;;;;;7.70;3.20;;;;;;;19.79;31.30;99031.36;105729;1257;61144;-75
2023/04/24 11:03:27;;;;;;;8.10;2.10;;;;;;;20.23;31.02;99034.47;105873;1258;75580;-72
2023/04/24 11:06:02;;;;;;;7.50;2.60;;;;;;;19.89;31.24;99029.23;105866;1253;69030;-71
2023/04/24 11:08:40;;;;;;;3.20;2.60;;;;;;;18.95;32.58;99032.98;105930;1257;73878;-75
2023/04/24 11:11:09;;;;;;;10.90;4.20;;;;;;;18.64;33.49;99038.55;105711;1260;61151;-71
2023/04/24 11:13:55;;;;;;;7.20;2.40;;;;;;;18.59;33.75;99043.88;106626;1253;61128;-75
2023/04/24 11:16:33;;;;;;;4.70;3.70;;;;;;;18.55;33.87;99045.84;108290;1256;75542;-72
2023/04/24 11:19:16;;;;;;;5.30;2.70;;;;;;;18.41;33.48;99041.55;106606;1256;67308;-76
2023/04/24 11:21:43;;;;;;;9.40;3.90;;;;;;;18.41;33.68;99044.04;106009;1257;73563;-74
2023/04/24 11:24:37;;;;;;;5.50;3.30;;;;;;;18.50;33.74;99037.97;105886;1254;61250;-73
2023/04/24 11:27:04;;;;;;;4.60;3.40;;;;;;;18.45;34.19;99042.63;106100;1253;61544;-70